Thunder radar more information blitzortung!


Löydät sääaseman tiedot myös:

European Weather Network

Finland Weather Exchange

Weather Underground

AWEKAS



Weather Underground säähistoriasivu

Päivittäin yhteenveto Joulukuu 8, 2017 Yksiköt:  Englantilaiset    Metriset   Molemmat
« Edellinen Päivä
Seuraava Päivä »
Päivittäin Viikoittain Kuukausittain Vuosittain Mukautettu
  Korkea: Matala: Keskiarvo:
Lämpötila: TemperatureC °F 0.2 °F 1.8 °F
Kastepiste: DewpointC °F -0.2 °F 1.4 °F
Kosteus: Humidity % 92 % 96 %
Tuulen nopeus: WindSpeedKMH mph 0.0 mph 2.5 mph
Tuulenpuuska: WindSpeedGustKMH mph - -
Tuuli:- - South
Ilmanpaine: PressurehPa in 981.6 in -
Sade: 0.0 in    
Historical Graphs
 
 
Taulukkotiedot Joulukuu 8, 2017
Aika Lämpötila Kastepiste Ilmanpaine Tuuli Tuulen nopeus Tuulenpuuska Kosteus Sademäärä (tunneittain)
TemperatureC °F DewpointC °F PressurehPa in Calm     Humidity % HourlyPrecipMM in
00:00 0.2 °F -0.2 °F 985.7 in South 3.2 mph 11.3 mph 97 % 0.0 in
00:30 0.4 °F 0.0 °F 985.3 in SSE 3.2 mph 20.9 mph 97 % 0.0 in
00:45 0.4 °F 0.0 °F 985.0 in South 3.2 mph 11.3 mph 97 % 0.0 in
01:00 0.5 °F 0.1 °F 985.0 in SSE 3.2 mph 12.9 mph 97 % 0.0 in
01:15 0.6 °F 0.1 °F 984.6 in SSE 3.2 mph 14.5 mph 97 % 0.0 in
01:30 0.6 °F 0.2 °F 984.6 in SSW 3.2 mph 16.1 mph 97 % 0.0 in
01:45 0.7 °F 0.3 °F 984.3 in South 3.2 mph 9.7 mph 97 % 0.0 in
02:00 0.8 °F 0.4 °F 984.3 in SSE 3.2 mph 17.7 mph 97 % 0.0 in
02:15 0.9 °F 0.5 °F 984.3 in SSW 4.8 mph 14.5 mph 97 % 0.0 in
02:30 0.9 °F 0.5 °F 984.0 in South 3.2 mph 12.9 mph 97 % 0.0 in
02:45 0.9 °F 0.7 °F 984.0 in SSE 3.2 mph 11.3 mph 98 % 0.0 in
03:00 0.9 °F 0.5 °F 984.0 in SSE 1.6 mph 8.0 mph 97 % 0.0 in
03:15 1.1 °F 0.8 °F 983.6 in South 4.8 mph 14.5 mph 98 % 0.0 in
03:30 1.1 °F 0.8 °F 983.6 in South 3.2 mph 14.5 mph 98 % 0.0 in
03:45 1.2 °F 0.9 °F 983.6 in South 1.6 mph 11.3 mph 98 % 0.0 in
04:00 1.2 °F 0.9 °F 983.3 in South 4.8 mph 14.5 mph 98 % 0.0 in
04:15 1.1 °F 0.8 °F 983.3 in SSE 1.6 mph 11.3 mph 98 % 0.0 in
04:30 1.2 °F 0.9 °F 983.0 in SSW 1.6 mph 9.7 mph 98 % 0.0 in
04:45 1.3 °F 1.1 °F 983.0 in SSW 3.2 mph 11.3 mph 98 % 0.0 in
05:00 1.3 °F 1.0 °F 982.6 in SSE 3.2 mph 14.5 mph 98 % 0.0 in
05:30 1.3 °F 1.1 °F 982.6 in SSE 1.6 mph 12.9 mph 98 % 0.0 in
06:00 1.5 °F 1.2 °F 982.3 in SSE 1.6 mph 11.3 mph 98 % 0.0 in
06:15 1.4 °F 1.2 °F 982.3 in Calm   8.0 mph 98 % 0.0 in
06:30 1.4 °F 1.2 °F 982.3 in SSE 1.6 mph 11.3 mph 98 % 0.0 in
06:45 1.4 °F 1.2 °F 982.3 in SSE 1.6 mph 9.7 mph 98 % 0.0 in
07:00 1.6 °F 1.3 °F 981.9 in South 1.6 mph 9.7 mph 98 % 0.0 in
07:15 1.6 °F 1.3 °F 981.9 in South 1.6 mph 8.0 mph 98 % 0.0 in
07:30 1.6 °F 1.3 °F 981.9 in South 1.6 mph 6.4 mph 98 % 0.0 in
07:45 1.7 °F 1.4 °F 981.6 in South 1.6 mph 11.3 mph 98 % 0.0 in
08:00 1.7 °F 1.4 °F 981.6 in SSE 1.6 mph 8.0 mph 98 % 0.0 in
08:15 1.7 °F 1.4 °F 981.6 in SSE 1.6 mph 11.3 mph 98 % 0.0 in
08:30 1.8 °F 1.5 °F 981.9 in SSE 1.6 mph 12.9 mph 98 % 0.0 in
08:45 1.8 °F 1.5 °F 981.9 in SSE 1.6 mph 11.3 mph 98 % 0.0 in
09:00 1.8 °F 1.6 °F 981.9 in Calm   6.4 mph 98 % 0.0 in
09:15 1.8 °F 1.6 °F 981.9 in Calm   3.2 mph 98 % 0.0 in
09:30 1.9 °F 1.7 °F 981.9 in Calm   3.2 mph 98 % 0.0 in
09:45 1.9 °F 1.6 °F 981.9 in South 1.6 mph 8.0 mph 98 % 0.0 in
10:00 1.9 °F 1.7 °F 981.9 in Calm   3.2 mph 98 % 0.0 in
10:15 1.9 °F 1.7 °F 981.9 in Calm   3.2 mph 98 % 0.0 in
10:30 2.1 °F 1.8 °F 981.9 in Calm   8.0 mph 98 % 0.0 in
10:45 2.2 °F 1.9 °F 981.9 in SSE 1.6 mph 9.7 mph 98 % 0.0 in
11:00 2.4 °F 2.1 °F 981.9 in South 1.6 mph 9.7 mph 98 % 0.0 in
11:15 2.5 °F 2.4 °F 981.9 in South 1.6 mph 8.0 mph 99 % 0.0 in
11:30 2.5 °F 2.4 °F 981.6 in SSE 1.6 mph 9.7 mph 99 % 0.0 in
11:45 2.6 °F 2.3 °F 981.6 in South 3.2 mph 12.9 mph 98 % 0.0 in
12:00 2.7 °F 2.4 °F 981.9 in SSE 1.6 mph 9.7 mph 98 % 0.0 in
12:15 2.8 °F 2.6 °F 981.9 in SSW 1.6 mph 9.7 mph 99 % 0.0 in
12:45 2.8 °F 2.6 °F 981.9 in Calm   8.0 mph 99 % 0.0 in
13:00 2.8 °F 2.5 °F 981.9 in Calm   9.7 mph 98 % 0.0 in
14:00 2.8 °F 2.5 °F 981.6 in SSE 1.6 mph 9.7 mph 98 % 0.0 in
14:15 2.8 °F 2.5 °F 981.6 in SSE 3.2 mph 16.1 mph 98 % 0.0 in
14:30 2.8 °F 2.5 °F 981.6 in SSE 3.2 mph 12.9 mph 98 % 0.0 in
14:45 2.7 °F 2.4 °F 981.9 in South 3.2 mph 11.3 mph 98 % 0.0 in
15:00 2.7 °F 2.4 °F 981.6 in South 1.6 mph 12.9 mph 98 % 0.0 in
15:45 2.4 °F 2.2 °F 981.9 in Calm   8.0 mph 98 % 0.0 in
16:00 2.4 °F 2.2 °F 981.9 in South 1.6 mph 11.3 mph 98 % 0.0 in
16:30 2.5 °F 2.2 °F 981.9 in SSE 1.6 mph 8.0 mph 98 % 0.0 in
17:00 2.4 °F 2.2 °F 981.6 in South 3.2 mph 12.9 mph 98 % 0.0 in
17:15 2.3 °F 2.1 °F 981.6 in SSE 3.2 mph 14.5 mph 98 % 0.0 in
17:30 2.4 °F 2.1 °F 981.6 in SSE 4.8 mph 17.7 mph 98 % 0.0 in
17:45 2.3 °F 2.1 °F 981.6 in South 1.6 mph 14.5 mph 98 % 0.0 in
18:00 2.4 °F 2.1 °F 981.9 in SSW 3.2 mph 9.7 mph 98 % 0.0 in
18:15 2.4 °F 2.2 °F 981.9 in South 3.2 mph 16.1 mph 98 % 0.0 in
19:00 2.4 °F 1.8 °F 981.9 in South 4.8 mph 14.5 mph 96 % 0.0 in
19:15 2.1 °F 1.5 °F 981.9 in SSE 1.6 mph 9.7 mph 96 % 0.0 in
19:30 2.1 °F 1.6 °F 981.9 in South 4.8 mph 14.5 mph 97 % 0.0 in
20:00 1.8 °F 1.3 °F 981.9 in South 3.2 mph 14.5 mph 96 % 0.0 in
20:15 1.8 °F 1.2 °F 981.9 in South 3.2 mph 12.9 mph 96 % 0.0 in
20:30 1.8 °F 1.2 °F 982.3 in South 3.2 mph 11.3 mph 96 % 0.0 in
20:45 1.9 °F 1.4 °F 982.3 in SSE 4.8 mph 20.9 mph 96 % 0.0 in
21:00 1.8 °F 1.3 °F 982.3 in South 3.2 mph 11.3 mph 96 % 0.0 in
21:15 1.8 °F 1.3 °F 981.9 in SSE 4.8 mph 16.1 mph 96 % 0.0 in
21:30 1.8 °F 1.2 °F 982.3 in SSE 3.2 mph 16.1 mph 96 % 0.0 in
21:45 1.8 °F 1.2 °F 981.9 in South 3.2 mph 14.5 mph 96 % 0.0 in
22:00 1.9 °F 1.3 °F 982.3 in South 4.8 mph 27.4 mph 96 % 0.0 in
22:30 2.3 °F 1.5 °F 982.3 in South 6.4 mph 22.5 mph 94 % 0.0 in
23:00 2.3 °F 1.3 °F 982.3 in South 4.8 mph 14.5 mph 93 % 0.0 in
23:30 2.7 °F 1.5 °F 982.3 in SSE 6.4 mph 17.7 mph 92 % 0.0 in
23:45 2.7 °F 1.7 °F 982.3 in SSE 8.0 mph 19.3 mph 93 % 0.0 in
Esan sääasema
Terveisin Weather Underground - 2.75 mb

Alkuperäinen skripti  Jim McMurry - jmcmurry@mwt.net Sovitettu myös templatelle  Wim van der Kuil - Leuven-Template.eu

Laitteet joita käytämme:

Sääasema
Davis VP2

Sääasemaohjelma
Cumulus

Sääaseman tietokone
Asus EeePC

Palveluntarjoaja
Suncomet

Davis VP2

Cumulus

Asus EeePC

Suncomet